sensor_id;sensor_type;location;lat;lon;timestamp;temperature;humidity
34492;DHT22;20737;49.908;8.126;2023-04-24T00:01:02;11.20;99.90
34492;DHT22;20737;49.908;8.126;2023-04-24T00:03:28;11.20;99.90
34492;DHT22;20737;49.908;8.126;2023-04-24T00:05:55;11.20;99.90
34492;DHT22;20737;49.908;8.126;2023-04-24T00:08:22;11.20;99.90
34492;DHT22;20737;49.908;8.126;2023-04-24T00:10:49;11.30;99.90
34492;DHT22;20737;49.908;8.126;2023-04-24T00:13:17;11.30;99.90
34492;DHT22;20737;49.908;8.126;2023-04-24T00:15:45;11.40;99.90
34492;DHT22;20737;49.908;8.126;2023-04-24T00:18:12;11.40;99.90
34492;DHT22;20737;49.908;8.126;2023-04-24T00:20:39;11.50;99.90
34492;DHT22;20737;49.908;8.126;2023-04-24T00:23:06;11.50;99.90
34492;DHT22;20737;49.908;8.126;2023-04-24T00:25:33;11.40;99.90
34492;DHT22;20737;49.908;8.126;2023-04-24T00:27:59;11.30;99.90
34492;DHT22;20737;49.908;8.126;2023-04-24T00:30:26;11.20;99.90
34492;DHT22;20737;49.908;8.126;2023-04-24T00:32:54;11.10;99.90
34492;DHT22;20737;49.908;8.126;2023-04-24T00:35:21;11.00;99.90
34492;DHT22;20737;49.908;8.126;2023-04-24T00:37:48;11.20;99.90
34492;DHT22;20737;49.908;8.126;2023-04-24T00:40:15;11.20;99.90
34492;DHT22;20737;49.908;8.126;2023-04-24T00:42:43;11.20;99.90
34492;DHT22;20737;49.908;8.126;2023-04-24T00:45:10;11.20;99.90
34492;DHT22;20737;49.908;8.126;2023-04-24T00:47:37;11.20;99.90
34492;DHT22;20737;49.908;8.126;2023-04-24T00:50:07;11.30;99.90
34492;DHT22;20737;49.908;8.126;2023-04-24T00:52:34;11.20;99.90
34492;DHT22;20737;49.908;8.126;2023-04-24T00:55:02;11.20;99.90
34492;DHT22;20737;49.908;8.126;2023-04-24T00:57:29;11.20;99.90
34492;DHT22;20737;49.908;8.126;2023-04-24T00:59:56;11.20;99.90
34492;DHT22;20737;49.908;8.126;2023-04-24T01:02:24;11.30;99.90
34492;DHT22;20737;49.908;8.126;2023-04-24T01:04:51;11.30;99.90
34492;DHT22;20737;49.908;8.126;2023-04-24T01:07:20;11.40;99.90
34492;DHT22;20737;49.908;8.126;2023-04-24T01:09:48;11.50;99.90
34492;DHT22;20737;49.908;8.126;2023-04-24T01:12:17;11.60;99.90
34492;DHT22;20737;49.908;8.126;2023-04-24T01:14:44;11.60;99.90
34492;DHT22;20737;49.908;8.126;2023-04-24T01:17:11;11.70;99.90
34492;DHT22;20737;49.908;8.126;2023-04-24T01:19:38;11.60;99.90
34492;DHT22;20737;49.908;8.126;2023-04-24T01:22:10;11.60;99.90
34492;DHT22;20737;49.908;8.126;2023-04-24T01:24:38;11.60;99.90
34492;DHT22;20737;49.908;8.126;2023-04-24T01:27:05;11.70;99.90
34492;DHT22;20737;49.908;8.126;2023-04-24T01:29:32;11.70;99.90
34492;DHT22;20737;49.908;8.126;2023-04-24T01:31:59;11.70;99.90
34492;DHT22;20737;49.908;8.126;2023-04-24T01:34:26;11.70;99.90
34492;DHT22;20737;49.908;8.126;2023-04-24T01:36:52;11.70;99.90
34492;DHT22;20737;49.908;8.126;2023-04-24T01:39:21;11.70;99.90
34492;DHT22;20737;49.908;8.126;2023-04-24T01:41:48;11.70;99.90
34492;DHT22;20737;49.908;8.126;2023-04-24T01:44:16;11.70;99.90
34492;DHT22;20737;49.908;8.126;2023-04-24T01:46:43;11.60;99.90
34492;DHT22;20737;49.908;8.126;2023-04-24T01:49:10;11.50;99.90
34492;DHT22;20737;49.908;8.126;2023-04-24T01:51:37;11.40;99.90
34492;DHT22;20737;49.908;8.126;2023-04-24T01:54:04;11.40;99.90
34492;DHT22;20737;49.908;8.126;2023-04-24T01:56:33;11.20;99.90
34492;DHT22;20737;49.908;8.126;2023-04-24T01:59:02;11.10;99.90
34492;DHT22;20737;49.908;8.126;2023-04-24T02:01:33;11.00;99.90
34492;DHT22;20737;49.908;8.126;2023-04-24T02:04:01;11.00;99.90
34492;DHT22;20737;49.908;8.126;2023-04-24T02:06:28;10.90;99.90
34492;DHT22;20737;49.908;8.126;2023-04-24T02:08:56;10.90;99.90
34492;DHT22;20737;49.908;8.126;2023-04-24T02:11:23;10.90;99.90
34492;DHT22;20737;49.908;8.126;2023-04-24T02:13:51;10.90;99.90
34492;DHT22;20737;49.908;8.126;2023-04-24T02:16:18;10.90;99.90
34492;DHT22;20737;49.908;8.126;2023-04-24T02:18:45;11.00;99.90
34492;DHT22;20737;49.908;8.126;2023-04-24T02:21:11;10.90;99.90
34492;DHT22;20737;49.908;8.126;2023-04-24T02:23:38;10.90;99.90
34492;DHT22;20737;49.908;8.126;2023-04-24T02:26:05;11.00;99.90
34492;DHT22;20737;49.908;8.126;2023-04-24T02:28:32;10.90;99.90
34492;DHT22;20737;49.908;8.126;2023-04-24T02:31:00;11.00;99.90
34492;DHT22;20737;49.908;8.126;2023-04-24T02:33:27;11.10;99.90
34492;DHT22;20737;49.908;8.126;2023-04-24T02:35:54;11.10;99.90
34492;DHT22;20737;49.908;8.126;2023-04-24T02:38:20;11.10;99.90
34492;DHT22;20737;49.908;8.126;2023-04-24T02:40:47;11.10;99.90
34492;DHT22;20737;49.908;8.126;2023-04-24T02:43:14;11.10;99.90
34492;DHT22;20737;49.908;8.126;2023-04-24T02:45:40;11.10;99.90
34492;DHT22;20737;49.908;8.126;2023-04-24T02:48:09;11.10;99.90
34492;DHT22;20737;49.908;8.126;2023-04-24T02:50:35;11.10;99.90
34492;DHT22;20737;49.908;8.126;2023-04-24T02:53:02;11.10;99.90
34492;DHT22;20737;49.908;8.126;2023-04-24T02:55:29;11.10;99.90
34492;DHT22;20737;49.908;8.126;2023-04-24T02:57:56;11.10;99.90
34492;DHT22;20737;49.908;8.126;2023-04-24T03:00:22;11.10;99.90
34492;DHT22;20737;49.908;8.126;2023-04-24T03:02:49;11.10;99.90
34492;DHT22;20737;49.908;8.126;2023-04-24T03:05:17;11.10;99.90
34492;DHT22;20737;49.908;8.126;2023-04-24T03:07:44;11.10;99.90
34492;DHT22;20737;49.908;8.126;2023-04-24T03:10:11;11.00;99.90
34492;DHT22;20737;49.908;8.126;2023-04-24T03:12:38;11.10;99.90
34492;DHT22;20737;49.908;8.126;2023-04-24T03:15:06;11.10;99.90
34492;DHT22;20737;49.908;8.126;2023-04-24T03:17:33;11.00;99.90
34492;DHT22;20737;49.908;8.126;2023-04-24T03:20:00;11.00;99.90
34492;DHT22;20737;49.908;8.126;2023-04-24T03:22:28;11.00;99.90
34492;DHT22;20737;49.908;8.126;2023-04-24T03:24:55;10.90;99.90
34492;DHT22;20737;49.908;8.126;2023-04-24T03:27:22;11.00;99.90
34492;DHT22;20737;49.908;8.126;2023-04-24T03:29:49;10.90;99.90
34492;DHT22;20737;49.908;8.126;2023-04-24T03:32:19;10.90;99.90
34492;DHT22;20737;49.908;8.126;2023-04-24T03:34:46;10.80;99.90
34492;DHT22;20737;49.908;8.126;2023-04-24T03:37:12;10.70;99.90
34492;DHT22;20737;49.908;8.126;2023-04-24T03:39:40;10.60;99.90
34492;DHT22;20737;49.908;8.126;2023-04-24T03:42:07;10.50;99.90
34492;DHT22;20737;49.908;8.126;2023-04-24T03:44:34;10.40;99.90
34492;DHT22;20737;49.908;8.126;2023-04-24T03:47:01;10.40;99.90
34492;DHT22;20737;49.908;8.126;2023-04-24T03:49:28;10.30;99.90
34492;DHT22;20737;49.908;8.126;2023-04-24T03:51:54;10.20;99.90
34492;DHT22;20737;49.908;8.126;2023-04-24T03:54:21;10.10;99.90
34492;DHT22;20737;49.908;8.126;2023-04-24T03:56:49;10.00;99.90
34492;DHT22;20737;49.908;8.126;2023-04-24T03:59:16;9.90;99.90
34492;DHT22;20737;49.908;8.126;2023-04-24T04:01:58;9.90;99.90
34492;DHT22;20737;49.908;8.126;2023-04-24T04:04:24;9.80;99.90
34492;DHT22;20737;49.908;8.126;2023-04-24T04:06:51;9.80;99.90
34492;DHT22;20737;49.908;8.126;2023-04-24T04:09:18;9.70;99.90
34492;DHT22;20737;49.908;8.126;2023-04-24T04:11:46;9.60;99.90
34492;DHT22;20737;49.908;8.126;2023-04-24T04:14:14;9.60;99.90
34492;DHT22;20737;49.908;8.126;2023-04-24T04:16:41;9.50;99.90
34492;DHT22;20737;49.908;8.126;2023-04-24T04:19:08;9.50;99.90
34492;DHT22;20737;49.908;8.126;2023-04-24T04:21:35;9.40;99.90
34492;DHT22;20737;49.908;8.126;2023-04-24T04:24:01;9.40;99.90
34492;DHT22;20737;49.908;8.126;2023-04-24T04:26:30;9.30;99.90
34492;DHT22;20737;49.908;8.126;2023-04-24T04:28:58;9.30;99.90
34492;DHT22;20737;49.908;8.126;2023-04-24T04:31:27;9.20;99.90
34492;DHT22;20737;49.908;8.126;2023-04-24T04:33:54;9.20;99.90
34492;DHT22;20737;49.908;8.126;2023-04-24T04:36:20;9.10;99.90
34492;DHT22;20737;49.908;8.126;2023-04-24T04:38:47;9.10;99.90
34492;DHT22;20737;49.908;8.126;2023-04-24T04:41:14;9.10;99.90
34492;DHT22;20737;49.908;8.126;2023-04-24T04:43:42;9.10;99.90
34492;DHT22;20737;49.908;8.126;2023-04-24T04:46:08;9.10;99.90
34492;DHT22;20737;49.908;8.126;2023-04-24T04:48:37;9.10;99.90
34492;DHT22;20737;49.908;8.126;2023-04-24T04:51:05;9.20;99.90
34492;DHT22;20737;49.908;8.126;2023-04-24T04:53:31;9.20;99.90
34492;DHT22;20737;49.908;8.126;2023-04-24T04:55:58;9.10;99.90
34492;DHT22;20737;49.908;8.126;2023-04-24T04:58:26;9.10;99.90
34492;DHT22;20737;49.908;8.126;2023-04-24T05:00:52;9.10;99.90
34492;DHT22;20737;49.908;8.126;2023-04-24T05:03:19;9.00;99.90
34492;DHT22;20737;49.908;8.126;2023-04-24T05:05:47;9.00;99.90
34492;DHT22;20737;49.908;8.126;2023-04-24T05:08:14;8.90;99.90
34492;DHT22;20737;49.908;8.126;2023-04-24T05:10:41;8.90;99.90
34492;DHT22;20737;49.908;8.126;2023-04-24T05:13:08;8.90;99.90
34492;DHT22;20737;49.908;8.126;2023-04-24T05:15:35;8.90;99.90
34492;DHT22;20737;49.908;8.126;2023-04-24T05:18:02;9.00;99.90
34492;DHT22;20737;49.908;8.126;2023-04-24T05:20:29;9.10;99.90
34492;DHT22;20737;49.908;8.126;2023-04-24T05:22:57;9.20;99.90
34492;DHT22;20737;49.908;8.126;2023-04-24T05:25:24;9.30;99.90
34492;DHT22;20737;49.908;8.126;2023-04-24T05:27:51;9.50;99.90
34492;DHT22;20737;49.908;8.126;2023-04-24T05:30:18;9.50;99.90
34492;DHT22;20737;49.908;8.126;2023-04-24T05:32:45;9.50;99.90
34492;DHT22;20737;49.908;8.126;2023-04-24T05:35:12;9.50;99.90
34492;DHT22;20737;49.908;8.126;2023-04-24T05:37:39;9.50;99.90
34492;DHT22;20737;49.908;8.126;2023-04-24T05:40:08;9.60;99.90
34492;DHT22;20737;49.908;8.126;2023-04-24T05:42:35;9.70;99.90
34492;DHT22;20737;49.908;8.126;2023-04-24T05:45:03;9.90;99.90
34492;DHT22;20737;49.908;8.126;2023-04-24T05:47:30;10.20;99.90
34492;DHT22;20737;49.908;8.126;2023-04-24T05:49:56;10.40;99.90
34492;DHT22;20737;49.908;8.126;2023-04-24T05:52:23;10.60;99.90
34492;DHT22;20737;49.908;8.126;2023-04-24T05:54:50;10.50;99.90
34492;DHT22;20737;49.908;8.126;2023-04-24T05:57:18;10.40;99.90
34492;DHT22;20737;49.908;8.126;2023-04-24T05:59:45;10.30;99.90
34492;DHT22;20737;49.908;8.126;2023-04-24T06:02:12;10.40;99.90
34492;DHT22;20737;49.908;8.126;2023-04-24T06:04:38;10.50;99.90
34492;DHT22;20737;49.908;8.126;2023-04-24T06:07:05;10.50;99.90
34492;DHT22;20737;49.908;8.126;2023-04-24T06:09:32;10.50;99.90
34492;DHT22;20737;49.908;8.126;2023-04-24T06:11:59;10.60;99.90
34492;DHT22;20737;49.908;8.126;2023-04-24T06:14:27;10.50;99.90
34492;DHT22;20737;49.908;8.126;2023-04-24T06:16:54;10.50;99.90
34492;DHT22;20737;49.908;8.126;2023-04-24T06:19:21;10.60;99.90
34492;DHT22;20737;49.908;8.126;2023-04-24T06:21:47;11.00;99.90
34492;DHT22;20737;49.908;8.126;2023-04-24T06:24:14;11.10;99.90
34492;DHT22;20737;49.908;8.126;2023-04-24T06:26:42;11.10;99.90
34492;DHT22;20737;49.908;8.126;2023-04-24T06:29:08;11.20;99.90
34492;DHT22;20737;49.908;8.126;2023-04-24T06:31:37;11.10;99.90
34492;DHT22;20737;49.908;8.126;2023-04-24T06:34:03;11.10;99.90
34492;DHT22;20737;49.908;8.126;2023-04-24T06:36:30;11.10;99.90
34492;DHT22;20737;49.908;8.126;2023-04-24T06:38:59;11.30;99.90
34492;DHT22;20737;49.908;8.126;2023-04-24T06:41:26;11.60;99.90
34492;DHT22;20737;49.908;8.126;2023-04-24T06:43:53;11.70;99.90
34492;DHT22;20737;49.908;8.126;2023-04-24T06:46:20;12.40;99.90
34492;DHT22;20737;49.908;8.126;2023-04-24T06:48:49;14.20;99.90
34492;DHT22;20737;49.908;8.126;2023-04-24T06:51:16;15.50;99.90
34492;DHT22;20737;49.908;8.126;2023-04-24T06:53:43;16.90;99.90
34492;DHT22;20737;49.908;8.126;2023-04-24T06:56:10;16.60;99.90
34492;DHT22;20737;49.908;8.126;2023-04-24T06:58:36;15.50;99.90
34492;DHT22;20737;49.908;8.126;2023-04-24T07:01:03;14.70;99.90
34492;DHT22;20737;49.908;8.126;2023-04-24T07:03:30;14.80;99.90
34492;DHT22;20737;49.908;8.126;2023-04-24T07:05:58;15.70;99.90
34492;DHT22;20737;49.908;8.126;2023-04-24T07:08:25;16.70;99.90
34492;DHT22;20737;49.908;8.126;2023-04-24T07:10:52;17.70;99.90
34492;DHT22;20737;49.908;8.126;2023-04-24T07:13:19;17.90;99.90
34492;DHT22;20737;49.908;8.126;2023-04-24T07:15:45;17.60;99.90
34492;DHT22;20737;49.908;8.126;2023-04-24T07:18:14;17.60;99.90
34492;DHT22;20737;49.908;8.126;2023-04-24T07:20:41;17.70;99.90
34492;DHT22;20737;49.908;8.126;2023-04-24T07:23:09;18.00;99.40
34492;DHT22;20737;49.908;8.126;2023-04-24T07:25:35;17.70;99.90
34492;DHT22;20737;49.908;8.126;2023-04-24T07:28:03;18.40;99.50
34492;DHT22;20737;49.908;8.126;2023-04-24T07:30:30;18.30;99.20
34492;DHT22;20737;49.908;8.126;2023-04-24T07:32:58;18.10;99.30
34492;DHT22;20737;49.908;8.126;2023-04-24T07:35:25;18.50;97.90
34492;DHT22;20737;49.908;8.126;2023-04-24T07:37:52;16.80;99.10
34492;DHT22;20737;49.908;8.126;2023-04-24T07:40:21;15.30;99.90
34492;DHT22;20737;49.908;8.126;2023-04-24T07:42:48;14.30;99.90
34492;DHT22;20737;49.908;8.126;2023-04-24T07:45:15;13.90;99.90
34492;DHT22;20737;49.908;8.126;2023-04-24T07:47:42;14.50;99.90
34492;DHT22;20737;49.908;8.126;2023-04-24T07:50:11;15.40;99.90
34492;DHT22;20737;49.908;8.126;2023-04-24T07:52:38;17.00;99.90
34492;DHT22;20737;49.908;8.126;2023-04-24T07:55:05;17.40;99.90
34492;DHT22;20737;49.908;8.126;2023-04-24T07:57:34;17.60;99.70
34492;DHT22;20737;49.908;8.126;2023-04-24T08:00:02;17.70;99.90
34492;DHT22;20737;49.908;8.126;2023-04-24T08:02:29;17.60;99.90
34492;DHT22;20737;49.908;8.126;2023-04-24T08:04:56;16.50;99.90
34492;DHT22;20737;49.908;8.126;2023-04-24T08:07:23;16.30;99.90
34492;DHT22;20737;49.908;8.126;2023-04-24T08:09:50;17.20;99.90
34492;DHT22;20737;49.908;8.126;2023-04-24T08:12:16;18.80;97.20
34492;DHT22;20737;49.908;8.126;2023-04-24T08:14:45;20.00;95.60
34492;DHT22;20737;49.908;8.126;2023-04-24T08:17:11;20.00;93.60
34492;DHT22;20737;49.908;8.126;2023-04-24T08:19:40;19.80;93.00
34492;DHT22;20737;49.908;8.126;2023-04-24T08:22:12;20.30;93.20
34492;DHT22;20737;49.908;8.126;2023-04-24T08:24:39;19.90;93.10
34492;DHT22;20737;49.908;8.126;2023-04-24T08:27:06;17.70;96.00
34492;DHT22;20737;49.908;8.126;2023-04-24T08:29:39;16.60;99.60
34492;DHT22;20737;49.908;8.126;2023-04-24T08:32:07;15.70;99.90
34492;DHT22;20737;49.908;8.126;2023-04-24T08:34:33;14.60;99.90
34492;DHT22;20737;49.908;8.126;2023-04-24T08:37:00;13.70;99.90
34492;DHT22;20737;49.908;8.126;2023-04-24T08:39:27;13.80;99.90
34492;DHT22;20737;49.908;8.126;2023-04-24T08:41:55;13.60;99.90
34492;DHT22;20737;49.908;8.126;2023-04-24T08:44:22;13.40;99.90
34492;DHT22;20737;49.908;8.126;2023-04-24T08:46:49;13.20;99.90
34492;DHT22;20737;49.908;8.126;2023-04-24T08:49:18;13.30;99.90
34492;DHT22;20737;49.908;8.126;2023-04-24T08:51:45;13.60;99.90
34492;DHT22;20737;49.908;8.126;2023-04-24T08:54:13;13.50;99.90
34492;DHT22;20737;49.908;8.126;2023-04-24T08:56:42;13.40;99.90
34492;DHT22;20737;49.908;8.126;2023-04-24T08:59:10;14.10;99.90
34492;DHT22;20737;49.908;8.126;2023-04-24T09:01:38;15.50;99.90
34492;DHT22;20737;49.908;8.126;2023-04-24T09:04:07;17.40;99.90
34492;DHT22;20737;49.908;8.126;2023-04-24T09:06:36;18.40;99.10
34492;DHT22;20737;49.908;8.126;2023-04-24T09:09:03;18.90;96.60
34492;DHT22;20737;49.908;8.126;2023-04-24T09:11:31;17.60;97.70
34492;DHT22;20737;49.908;8.126;2023-04-24T09:13:58;15.70;99.90
34492;DHT22;20737;49.908;8.126;2023-04-24T09:16:25;14.40;99.90
34492;DHT22;20737;49.908;8.126;2023-04-24T09:18:55;13.90;99.90
34492;DHT22;20737;49.908;8.126;2023-04-24T09:21:22;13.80;99.90
34492;DHT22;20737;49.908;8.126;2023-04-24T09:23:59;13.50;99.90
34492;DHT22;20737;49.908;8.126;2023-04-24T09:26:29;13.10;99.90
34492;DHT22;20737;49.908;8.126;2023-04-24T09:28:58;13.00;99.90
34492;DHT22;20737;49.908;8.126;2023-04-24T09:31:27;13.50;99.90
34492;DHT22;20737;49.908;8.126;2023-04-24T09:33:57;14.30;99.90
34492;DHT22;20737;49.908;8.126;2023-04-24T09:36:31;16.00;99.90
34492;DHT22;20737;49.908;8.126;2023-04-24T09:39:01;16.50;99.90
34492;DHT22;20737;49.908;8.126;2023-04-24T09:41:28;15.80;99.90
34492;DHT22;20737;49.908;8.126;2023-04-24T09:43:56;14.80;99.90
34492;DHT22;20737;49.908;8.126;2023-04-24T09:46:29;14.00;99.90
34492;DHT22;20737;49.908;8.126;2023-04-24T09:48:56;13.80;99.90
34492;DHT22;20737;49.908;8.126;2023-04-24T09:51:33;13.30;99.90
34492;DHT22;20737;49.908;8.126;2023-04-24T09:54:02;13.00;99.90
34492;DHT22;20737;49.908;8.126;2023-04-24T09:56:32;12.90;99.90
34492;DHT22;20737;49.908;8.126;2023-04-24T09:59:04;12.80;99.90
34492;DHT22;20737;49.908;8.126;2023-04-24T10:01:32;12.80;99.90
34492;DHT22;20737;49.908;8.126;2023-04-24T10:03:59;12.90;99.90
34492;DHT22;20737;49.908;8.126;2023-04-24T10:06:32;13.30;99.90
34492;DHT22;20737;49.908;8.126;2023-04-24T10:08:59;13.80;99.90
34492;DHT22;20737;49.908;8.126;2023-04-24T10:11:28;13.90;99.90
34492;DHT22;20737;49.908;8.126;2023-04-24T10:13:55;14.80;99.90
34492;DHT22;20737;49.908;8.126;2023-04-24T10:16:23;14.30;99.90
34492;DHT22;20737;49.908;8.126;2023-04-24T10:18:52;13.90;99.90
34492;DHT22;20737;49.908;8.126;2023-04-24T10:21:19;13.80;99.90
34492;DHT22;20737;49.908;8.126;2023-04-24T10:23:48;13.50;99.90
34492;DHT22;20737;49.908;8.126;2023-04-24T10:26:16;13.10;99.90
34492;DHT22;20737;49.908;8.126;2023-04-24T10:28:47;12.90;99.90
34492;DHT22;20737;49.908;8.126;2023-04-24T10:31:14;12.70;99.90
34492;DHT22;20737;49.908;8.126;2023-04-24T10:33:42;12.40;99.90
34492;DHT22;20737;49.908;8.126;2023-04-24T10:36:10;12.00;99.90
34492;DHT22;20737;49.908;8.126;2023-04-24T10:38:39;11.70;99.90
34492;DHT22;20737;49.908;8.126;2023-04-24T10:41:08;11.50;99.90
34492;DHT22;20737;49.908;8.126;2023-04-24T10:43:40;11.40;99.90
34492;DHT22;20737;49.908;8.126;2023-04-24T10:46:08;11.50;99.90
34492;DHT22;20737;49.908;8.126;2023-04-24T10:48:35;11.60;99.90
34492;DHT22;20737;49.908;8.126;2023-04-24T10:51:11;11.50;99.90
34492;DHT22;20737;49.908;8.126;2023-04-24T10:53:38;11.60;99.90
34492;DHT22;20737;49.908;8.126;2023-04-24T10:56:06;11.50;99.90
34492;DHT22;20737;49.908;8.126;2023-04-24T10:58:40;11.40;99.90
34492;DHT22;20737;49.908;8.126;2023-04-24T11:01:23;11.30;99.90
34492;DHT22;20737;49.908;8.126;2023-04-24T11:03:54;11.30;99.90
34492;DHT22;20737;49.908;8.126;2023-04-24T11:06:28;11.10;99.90
34492;DHT22;20737;49.908;8.126;2023-04-24T11:09:02;11.20;99.90
34492;DHT22;20737;49.908;8.126;2023-04-24T11:11:30;11.10;99.90
34492;DHT22;20737;49.908;8.126;2023-04-24T11:14:07;11.00;99.90
34492;DHT22;20737;49.908;8.126;2023-04-24T11:16:42;11.10;99.90
34492;DHT22;20737;49.908;8.126;2023-04-24T11:19:18;10.90;99.90
34492;DHT22;20737;49.908;8.126;2023-04-24T11:21:47;10.90;99.90
34492;DHT22;20737;49.908;8.126;2023-04-24T11:24:37;10.90;99.90
34492;DHT22;20737;49.908;8.126;2023-04-24T11:27:14;11.10;99.90
34492;DHT22;20737;49.908;8.126;2023-04-24T11:29:43;11.30;99.90
34492;DHT22;20737;49.908;8.126;2023-04-24T11:35:22;12.10;99.90
34492;DHT22;20737;49.908;8.126;2023-04-24T11:37:51;15.00;99.90
34492;DHT22;20737;49.908;8.126;2023-04-24T11:40:20;15.50;99.90
34492;DHT22;20737;49.908;8.126;2023-04-24T11:42:49;15.50;99.90
34492;DHT22;20737;49.908;8.126;2023-04-24T11:45:17;17.30;99.90
34492;DHT22;20737;49.908;8.126;2023-04-24T11:47:46;19.20;99.90
34492;DHT22;20737;49.908;8.126;2023-04-24T11:50:14;20.00;99.90
34492;DHT22;20737;49.908;8.126;2023-04-24T11:52:42;19.50;99.90
34492;DHT22;20737;49.908;8.126;2023-04-24T11:55:23;20.40;99.90
34492;DHT22;20737;49.908;8.126;2023-04-24T11:57:53;20.70;99.90
34492;DHT22;20737;49.908;8.126;2023-04-24T12:00:22;21.70;99.90
34492;DHT22;20737;49.908;8.126;2023-04-24T12:02:51;22.00;97.10
34492;DHT22;20737;49.908;8.126;2023-04-24T12:05:21;21.20;96.70
34492;DHT22;20737;49.908;8.126;2023-04-24T12:07:48;19.30;97.50
34492;DHT22;20737;49.908;8.126;2023-04-24T12:10:22;18.10;98.40
34492;DHT22;20737;49.908;8.126;2023-04-24T12:12:50;17.60;99.90
34492;DHT22;20737;49.908;8.126;2023-04-24T12:15:17;16.50;99.90
34492;DHT22;20737;49.908;8.126;2023-04-24T12:17:45;15.80;99.90
34492;DHT22;20737;49.908;8.126;2023-04-24T12:20:14;15.20;99.90
34492;DHT22;20737;49.908;8.126;2023-04-24T12:22:44;14.90;99.90
34492;DHT22;20737;49.908;8.126;2023-04-24T12:25:12;16.00;99.90
34492;DHT22;20737;49.908;8.126;2023-04-24T12:27:40;16.30;99.90
34492;DHT22;20737;49.908;8.126;2023-04-24T12:30:12;16.10;99.90
34492;DHT22;20737;49.908;8.126;2023-04-24T12:32:41;16.00;99.90
34492;DHT22;20737;49.908;8.126;2023-04-24T12:35:09;16.90;99.90
34492;DHT22;20737;49.908;8.126;2023-04-24T12:37:37;17.60;99.90
34492;DHT22;20737;49.908;8.126;2023-04-24T12:40:07;17.50;99.90
34492;DHT22;20737;49.908;8.126;2023-04-24T12:42:34;17.70;99.90
34492;DHT22;20737;49.908;8.126;2023-04-24T12:45:03;17.30;99.90
34492;DHT22;20737;49.908;8.126;2023-04-24T12:47:31;16.80;99.90
34492;DHT22;20737;49.908;8.126;2023-04-24T12:49:58;16.80;99.90
34492;DHT22;20737;49.908;8.126;2023-04-24T12:52:26;17.40;99.90
34492;DHT22;20737;49.908;8.126;2023-04-24T12:54:56;17.50;99.90
34492;DHT22;20737;49.908;8.126;2023-04-24T12:57:24;16.90;99.90
34492;DHT22;20737;49.908;8.126;2023-04-24T12:59:54;16.30;99.90
34492;DHT22;20737;49.908;8.126;2023-04-24T13:02:21;15.50;99.90
34492;DHT22;20737;49.908;8.126;2023-04-24T13:04:48;14.90;99.90
34492;DHT22;20737;49.908;8.126;2023-04-24T13:07:16;14.60;99.90
34492;DHT22;20737;49.908;8.126;2023-04-24T13:09:43;14.70;99.90
34492;DHT22;20737;49.908;8.126;2023-04-24T13:12:12;14.90;99.90
34492;DHT22;20737;49.908;8.126;2023-04-24T13:14:39;14.90;99.90
34492;DHT22;20737;49.908;8.126;2023-04-24T13:17:06;14.50;99.90
34492;DHT22;20737;49.908;8.126;2023-04-24T13:19:37;14.90;99.90
34492;DHT22;20737;49.908;8.126;2023-04-24T13:22:04;15.40;99.90
34492;DHT22;20737;49.908;8.126;2023-04-24T13:24:31;15.90;99.90
34492;DHT22;20737;49.908;8.126;2023-04-24T13:26:58;17.10;99.90
34492;DHT22;20737;49.908;8.126;2023-04-24T13:29:27;18.30;99.50
34492;DHT22;20737;49.908;8.126;2023-04-24T13:31:54;17.70;97.10
34492;DHT22;20737;49.908;8.126;2023-04-24T13:34:21;16.60;98.60
34492;DHT22;20737;49.908;8.126;2023-04-24T13:36:49;15.50;99.90
34492;DHT22;20737;49.908;8.126;2023-04-24T13:39:16;15.10;99.90
34492;DHT22;20737;49.908;8.126;2023-04-24T13:41:43;14.90;99.90
34492;DHT22;20737;49.908;8.126;2023-04-24T13:44:10;14.60;99.90
34492;DHT22;20737;49.908;8.126;2023-04-24T13:46:38;14.40;99.90
34492;DHT22;20737;49.908;8.126;2023-04-24T13:49:05;14.20;99.90
34492;DHT22;20737;49.908;8.126;2023-04-24T13:51:32;14.30;99.90
34492;DHT22;20737;49.908;8.126;2023-04-24T13:53:59;14.30;99.90
34492;DHT22;20737;49.908;8.126;2023-04-24T13:56:26;14.20;99.90
34492;DHT22;20737;49.908;8.126;2023-04-24T13:58:53;14.10;99.90
34492;DHT22;20737;49.908;8.126;2023-04-24T14:01:20;14.10;99.90
34492;DHT22;20737;49.908;8.126;2023-04-24T14:03:50;13.90;99.90
34492;DHT22;20737;49.908;8.126;2023-04-24T14:06:17;14.00;99.90
34492;DHT22;20737;49.908;8.126;2023-04-24T14:08:44;14.20;99.90
34492;DHT22;20737;49.908;8.126;2023-04-24T14:11:11;14.30;99.90
34492;DHT22;20737;49.908;8.126;2023-04-24T14:13:39;14.30;99.90
34492;DHT22;20737;49.908;8.126;2023-04-24T14:16:07;14.20;99.90
34492;DHT22;20737;49.908;8.126;2023-04-24T14:18:34;14.00;99.90
34492;DHT22;20737;49.908;8.126;2023-04-24T14:21:03;13.80;99.90
34492;DHT22;20737;49.908;8.126;2023-04-24T14:23:30;14.10;99.90
34492;DHT22;20737;49.908;8.126;2023-04-24T14:25:57;14.50;99.90
34492;DHT22;20737;49.908;8.126;2023-04-24T14:28:24;14.60;99.90
34492;DHT22;20737;49.908;8.126;2023-04-24T14:30:50;14.50;99.90
34492;DHT22;20737;49.908;8.126;2023-04-24T14:33:18;15.10;99.90
34492;DHT22;20737;49.908;8.126;2023-04-24T14:35:45;15.80;99.90
34492;DHT22;20737;49.908;8.126;2023-04-24T14:38:14;15.90;99.90
34492;DHT22;20737;49.908;8.126;2023-04-24T14:40:40;15.40;99.90
34492;DHT22;20737;49.908;8.126;2023-04-24T14:43:07;15.10;99.90
34492;DHT22;20737;49.908;8.126;2023-04-24T14:45:34;15.40;99.90
34492;DHT22;20737;49.908;8.126;2023-04-24T14:48:01;15.50;99.90
34492;DHT22;20737;49.908;8.126;2023-04-24T14:50:27;15.50;99.90
34492;DHT22;20737;49.908;8.126;2023-04-24T14:52:55;15.40;99.90
34492;DHT22;20737;49.908;8.126;2023-04-24T14:55:24;15.30;99.90
34492;DHT22;20737;49.908;8.126;2023-04-24T14:57:51;15.30;99.90
34492;DHT22;20737;49.908;8.126;2023-04-24T15:00:19;15.20;99.90
34492;DHT22;20737;49.908;8.126;2023-04-24T15:02:48;14.90;99.90
34492;DHT22;20737;49.908;8.126;2023-04-24T15:05:16;15.10;99.90
34492;DHT22;20737;49.908;8.126;2023-04-24T15:07:42;15.60;99.90
34492;DHT22;20737;49.908;8.126;2023-04-24T15:10:10;16.30;99.90
34492;DHT22;20737;49.908;8.126;2023-04-24T15:12:39;16.10;99.90
34492;DHT22;20737;49.908;8.126;2023-04-24T15:15:07;16.10;99.90
34492;DHT22;20737;49.908;8.126;2023-04-24T15:17:34;15.70;99.90
34492;DHT22;20737;49.908;8.126;2023-04-24T15:20:01;15.80;99.90
34492;DHT22;20737;49.908;8.126;2023-04-24T15:22:29;15.80;99.90
34492;DHT22;20737;49.908;8.126;2023-04-24T15:24:55;15.60;99.90
34492;DHT22;20737;49.908;8.126;2023-04-24T15:27:22;15.50;99.90
34492;DHT22;20737;49.908;8.126;2023-04-24T15:29:51;15.60;99.90
34492;DHT22;20737;49.908;8.126;2023-04-24T15:32:19;15.50;99.90
34492;DHT22;20737;49.908;8.126;2023-04-24T15:34:45;15.50;99.90
34492;DHT22;20737;49.908;8.126;2023-04-24T15:37:12;15.40;99.90
34492;DHT22;20737;49.908;8.126;2023-04-24T15:39:39;15.40;99.90